»·PEaware :: N143VT KFAT-KPSP

N143VT :: KFAT-KPSP

FLIGHT INFORMATION

Flight Status: Arrived
Operator: Privately registered:
United States
More flights under this callsign
Pilot: Anonymous 16492 (16492)
Aircraft: ECLIPSE 500
(EA50)
More flights by this aircraft type
Origin: KFAT Fresno Yosemite Intl
United States
Destination: KPSP Palm Springs Intl
United States
More flights between these airports :: More routes between these airports
Route: +BULL3 EHF V197 PMD V137 TRM
File this flight plan on PilotEdge
Remarks:
Altitude:
(Current/Filed)
27,000ft
Speed:
(Current/Filed)
350kts
Departed: 24-Jul-18 06:06 PM
Arrived: 24-Jul-18 07:13 PM
Distance/Time
Traveled:
237nm/1:07
Distance/Time
To Go:
Arrived

Flight Plot

Page will automatically refresh every two minutes.

Flight plan parsing failed; only flown route is shown


Map Options




Map Legend


Flown Route
Filed Route
Departure Airport
Arrival Airport
Navaid (VOR, NDB)
Fix

Horizontal Profiles

Position Reports

Time Latitude Longitude Heading Altitude Ground
Speed
24-Jul-18 17:46 36.774762 -119.723860 133 337ft 0kts
24-Jul-18 17:47 36.774762 -119.723860 133 337ft 0kts
24-Jul-18 17:48 36.774762 -119.723860 133 337ft 0kts
24-Jul-18 17:49 36.774762 -119.723860 133 337ft 0kts
24-Jul-18 17:50 36.774762 -119.723860 133 337ft 0kts
24-Jul-18 17:51 36.774762 -119.723860 133 337ft 0kts
24-Jul-18 17:52 36.774762 -119.723860 133 337ft 0kts
24-Jul-18 17:53 36.774762 -119.723860 133 337ft 0kts
24-Jul-18 17:54 36.774762 -119.723860 133 337ft 0kts
24-Jul-18 17:55 36.774762 -119.723860 133 337ft 0kts
24-Jul-18 17:56 36.774762 -119.723860 133 337ft 0kts
24-Jul-18 17:57 36.774762 -119.723860 133 337ft 0kts
24-Jul-18 17:58 36.774742 -119.723832 128 337ft 2kts
24-Jul-18 17:59 36.774865 -119.723631 359 337ft 1kts
24-Jul-18 18:00 36.775976 -119.722847 79 337ft 1kts
24-Jul-18 18:01 36.775030 -119.720884 125 337ft 11kts
24-Jul-18 18:02 36.773654 -119.718459 125 337ft 7kts
24-Jul-18 18:03 36.772714 -119.716825 125 337ft 4kts
24-Jul-18 18:04 36.770794 -119.713447 125 337ft 23kts
24-Jul-18 18:05 36.769823 -119.711295 68 337ft 5kts
24-Jul-18 18:06 36.770427 -119.710780 357 337ft 13kts
24-Jul-18 18:07 36.783051 -119.732880 303 642ft 139kts
24-Jul-18 18:08 36.804121 -119.770906 304 2706ft 157kts
24-Jul-18 18:09 36.834554 -119.777105 62 4816ft 175kts
24-Jul-18 18:10 36.812417 -119.742830 161 6736ft 174kts
24-Jul-18 18:11 36.772564 -119.723841 160 8626ft 177kts
24-Jul-18 18:12 36.732754 -119.704521 160 10376ft 181kts
24-Jul-18 18:13 36.693604 -119.685352 159 11970ft 184kts
24-Jul-18 18:14 36.650595 -119.664132 160 13600ft 188kts
24-Jul-18 18:15 36.605196 -119.641736 161 15202ft 191kts
24-Jul-18 18:16 36.558961 -119.618953 161 16722ft 194kts
24-Jul-18 18:17 36.513272 -119.596464 162 18126ft 197kts
24-Jul-18 18:18 36.466274 -119.573359 162 19479ft 199kts
24-Jul-18 18:19 36.418769 -119.550034 163 20759ft 201kts
24-Jul-18 18:20 36.369823 -119.526033 163 21993ft 202kts
24-Jul-18 18:21 36.320366 -119.501812 163 23161ft 204kts
24-Jul-18 18:22 36.270838 -119.477588 164 24256ft 205kts
24-Jul-18 18:23 36.221034 -119.453262 164 25288ft 207kts
24-Jul-18 18:24 36.170259 -119.428494 164 26271ft 208kts
24-Jul-18 18:25 36.118916 -119.403513 164 26982ft 220kts
24-Jul-18 18:26 36.060990 -119.375400 163 26990ft 257kts
24-Jul-18 18:27 35.994683 -119.343198 163 26988ft 286kts
24-Jul-18 18:28 35.922679 -119.308272 163 26982ft 307kts
24-Jul-18 18:29 35.848601 -119.272414 162 26985ft 322kts
24-Jul-18 18:30 35.771737 -119.235290 162 26984ft 332kts
24-Jul-18 18:31 35.694387 -119.197668 158 26979ft 340kts
24-Jul-18 18:32 35.638884 -119.117511 135 26984ft 356kts
24-Jul-18 18:33 35.581193 -119.031993 134 26987ft 359kts
24-Jul-18 18:34 35.531580 -118.958097 134 26991ft 356kts
24-Jul-18 18:35 35.471280 -118.868304 134 26991ft 356kts
24-Jul-18 18:36 35.400189 -118.762654 133 27016ft 356kts
24-Jul-18 18:37 35.339532 -118.672748 133 27107ft 355kts
24-Jul-18 18:38 35.280741 -118.585839 133 27197ft 355kts
24-Jul-18 18:39 35.230905 -118.512346 133 27236ft 355kts
24-Jul-18 18:40 35.170702 -118.423759 133 27236ft 355kts
24-Jul-18 18:41 35.111650 -118.337104 134 27234ft 355kts
24-Jul-18 18:42 35.051442 -118.248976 134 27194ft 355kts
24-Jul-18 18:43 34.993158 -118.163883 134 27117ft 350kts
24-Jul-18 18:44 34.938554 -118.084373 133 27072ft 343kts
24-Jul-18 18:45 34.887463 -118.010145 133 27057ft 337kts
24-Jul-18 18:46 34.832070 -117.929750 132 27032ft 337kts
24-Jul-18 18:47 34.788678 -117.866916 132 27012ft 338kts
24-Jul-18 18:48 34.731743 -117.784722 132 25740ft 337kts
24-Jul-18 18:49 34.675549 -117.703768 131 23802ft 325kts
24-Jul-18 18:50 34.620728 -117.624948 131 21886ft 316kts
24-Jul-18 18:51 34.566618 -117.547318 130 19950ft 310kts
24-Jul-18 18:52 34.513041 -117.470617 130 17990ft 303kts
24-Jul-18 18:53 34.460833 -117.396033 130 16042ft 298kts
24-Jul-18 18:54 34.410649 -117.324488 130 14214ft 291kts
24-Jul-18 18:55 34.360710 -117.253423 130 14119ft 293kts
24-Jul-18 18:56 34.312737 -117.185307 130 14118ft 293kts
24-Jul-18 18:57 34.261984 -117.113392 130 14118ft 293kts
24-Jul-18 18:58 34.211625 -117.042133 130 14118ft 294kts
24-Jul-18 18:59 34.164243 -116.967260 121 14118ft 295kts
24-Jul-18 19:00 34.124051 -116.883916 121 14117ft 297kts
24-Jul-18 19:01 34.084289 -116.800842 121 14084ft 298kts
24-Jul-18 19:02 34.043292 -116.715238 121 14044ft 310kts
24-Jul-18 19:03 34.004755 -116.634805 121 12663ft 248kts
24-Jul-18 19:04 33.963878 -116.574055 131 10697ft 246kts
24-Jul-18 19:05 33.922600 -116.515224 131 8814ft 244kts
24-Jul-18 19:06 33.885330 -116.461692 131 7073ft 238kts
24-Jul-18 19:07 33.841331 -116.410331 154 5180ft 229kts
24-Jul-18 19:08 33.793536 -116.441236 226 4055ft 174kts
24-Jul-18 19:09 33.801897 -116.484357 329 2260ft 172kts
24-Jul-18 19:10 33.835023 -116.512997 326 786ft 119kts
24-Jul-18 19:11 33.859796 -116.507402 101 1350ft 128kts
24-Jul-18 19:12 33.831353 -116.477374 141 1667ft 132kts
24-Jul-18 19:13 33.814179 -116.494530 323 1045ft 132kts
24-Jul-18 19:14 33.832927 -116.511852 203 480ft 0kts
24-Jul-18 19:15 33.832403 -116.511963 185 480ft 0kts
24-Jul-18 19:16 33.832320 -116.511972 181 480ft 0kts
24-Jul-18 19:17 33.832222 -116.511975 177 480ft 0kts
24-Jul-18 19:18 33.829398 -116.509529 143 480ft 9kts
24-Jul-18 19:19 33.828251 -116.509311 175 480ft 0kts
24-Jul-18 19:20 33.828251 -116.509310 176 479ft 0kts

Navigation Log

Ident Type
Flight plan parsing failed, navigation log unavailable